Time;durP1;ratioP1;P1;durP2;ratioP2;P2;SDS_P1;SDS_P2;PMS_P1;PMS_P2;Temp;Humidity;BMP_temperature;BMP_pressure;BME280_temperature;BME280_humidity;BME280_pressure;Samples;Min_cycle;Max_cycle;Signal;HPM_P1;HPM_P2
2024/01/20 00:02:04;;;;;;;75.57;29.48;;;-0.10;99.90;;;;;;5013210;28;20041;-66
2024/01/20 00:04:30;;;;;;;68.43;30.08;;;-0.10;99.90;;;;;;5013301;28;20531;-67
2024/01/20 00:06:56;;;;;;;73.95;30.27;;;-0.10;99.90;;;;;;5013360;28;20117;-67
2024/01/20 00:09:21;;;;;;;70.20;28.80;;;-0.10;99.90;;;;;;5013266;28;20500;-67
2024/01/20 00:11:47;;;;;;;73.57;29.70;;;-0.10;99.90;;;;;;5012971;28;20440;-67
2024/01/20 00:14:13;;;;;;;86.20;31.23;;;-0.10;99.90;;;;;;5012941;28;20057;-68
2024/01/20 00:16:38;;;;;;;76.97;29.58;;;-0.10;99.90;;;;;;5013061;28;20483;-67
2024/01/20 00:19:04;;;;;;;75.93;29.65;;;-0.10;99.90;;;;;;5013429;28;20119;-67
2024/01/20 00:21:30;;;;;;;78.93;30.20;;;-0.20;99.90;;;;;;5013327;28;20539;-67
2024/01/20 00:23:55;;;;;;;78.32;30.45;;;-0.20;99.90;;;;;;5013112;28;20431;-67
2024/01/20 00:26:21;;;;;;;74.57;29.75;;;-0.30;99.90;;;;;;5013329;28;20029;-67
2024/01/20 00:28:47;;;;;;;70.28;31.25;;;-0.30;99.90;;;;;;5013040;28;20073;-67
2024/01/20 00:31:12;;;;;;;67.78;29.45;;;-0.40;99.90;;;;;;5013206;28;20399;-67
2024/01/20 00:33:38;;;;;;;74.93;28.60;;;-0.50;99.90;;;;;;5013027;28;20066;-67
2024/01/20 00:36:03;;;;;;;69.45;29.02;;;-0.50;99.90;;;;;;5013218;28;20036;-67
2024/01/20 00:38:29;;;;;;;67.40;28.50;;;-0.60;99.90;;;;;;5013036;28;20494;-67
2024/01/20 00:40:55;;;;;;;66.90;28.77;;;-0.60;99.90;;;;;;5012519;28;20022;-67
2024/01/20 00:43:20;;;;;;;75.70;27.77;;;-0.60;99.90;;;;;;5012902;28;20037;-66
2024/01/20 00:45:46;;;;;;;77.10;27.73;;;-0.60;99.90;;;;;;5012639;28;20465;-67
2024/01/20 00:48:11;;;;;;;63.95;25.65;;;-0.70;99.90;;;;;;5013039;28;20025;-67
2024/01/20 00:50:37;;;;;;;60.97;26.08;;;-0.70;99.90;;;;;;5016059;28;20113;-67
2024/01/20 00:53:03;;;;;;;61.67;25.27;;;-0.70;99.90;;;;;;5016618;28;20392;-67
2024/01/20 00:55:28;;;;;;;58.90;23.48;;;-0.70;99.90;;;;;;5016608;28;20506;-67
2024/01/20 00:57:54;;;;;;;58.83;24.02;;;-0.70;99.90;;;;;;5016590;28;20040;-68
2024/01/20 01:00:19;;;;;;;62.97;24.05;;;-0.70;99.90;;;;;;5016347;28;20447;-67
2024/01/20 01:02:45;;;;;;;55.45;23.73;;;-0.70;99.90;;;;;;5016146;28;20018;-67
2024/01/20 01:05:10;;;;;;;61.92;24.20;;;-0.80;99.90;;;;;;5016366;28;20056;-67
2024/01/20 01:07:36;;;;;;;58.15;23.75;;;-0.80;99.90;;;;;;5016343;28;20076;-67
2024/01/20 01:10:03;;;;;;;55.45;21.77;;;-0.80;99.90;;;;;;5016285;28;20084;-68
2024/01/20 01:12:29;;;;;;;48.28;20.35;;;-0.70;99.90;;;;;;5015819;28;20026;-66
2024/01/20 01:14:55;;;;;;;49.90;20.45;;;-0.80;99.90;;;;;;5015851;28;20025;-68
2024/01/20 01:17:21;;;;;;;53.00;21.50;;;-0.80;99.90;;;;;;5016042;28;20034;-66
2024/01/20 01:19:47;;;;;;;40.35;20.30;;;-0.90;99.90;;;;;;5016025;28;20117;-67
2024/01/20 01:22:13;;;;;;;53.08;20.83;;;-0.90;99.90;;;;;;5015731;28;20153;-67
2024/01/20 01:24:38;;;;;;;52.97;21.20;;;-0.90;99.90;;;;;;5015818;28;20034;-67
2024/01/20 01:27:05;;;;;;;46.90;21.20;;;-0.90;99.90;;;;;;5016019;28;20041;-67
2024/01/20 01:29:31;;;;;;;51.85;20.10;;;-1.00;99.90;;;;;;5015953;28;20033;-67
2024/01/20 01:31:56;;;;;;;47.20;20.00;;;-1.00;99.90;;;;;;5015889;28;20026;-67
2024/01/20 01:34:22;;;;;;;49.78;20.90;;;-1.00;99.90;;;;;;5015812;28;20037;-67
2024/01/20 01:36:47;;;;;;;50.50;20.38;;;-1.00;99.90;;;;;;5015780;28;20048;-67
2024/01/20 01:39:13;;;;;;;50.90;20.75;;;-1.00;99.90;;;;;;5015759;28;20076;-67
2024/01/20 01:41:39;;;;;;;50.40;20.67;;;-1.00;99.90;;;;;;5015042;28;20136;-67
2024/01/20 01:44:04;;;;;;;41.08;19.17;;;-1.00;99.90;;;;;;5015446;28;20076;-67
2024/01/20 01:46:31;;;;;;;53.70;20.75;;;-1.00;99.90;;;;;;5015616;28;20535;-67
2024/01/20 01:48:57;;;;;;;44.28;18.65;;;-1.10;99.90;;;;;;5015569;28;20357;-67
2024/01/20 01:51:22;;;;;;;40.28;18.13;;;-1.00;99.90;;;;;;5015594;28;20026;-66
2024/01/20 01:53:49;;;;;;;43.15;18.88;;;-1.00;99.90;;;;;;5015234;28;20091;-66
2024/01/20 01:56:15;;;;;;;44.42;18.25;;;-1.00;99.90;;;;;;5015391;28;20079;-67
2024/01/20 01:58:42;;;;;;;43.95;18.38;;;-1.00;99.90;;;;;;5015323;28;20105;-67
2024/01/20 02:01:08;;;;;;;38.08;16.77;;;-1.00;99.90;;;;;;5014208;28;20069;-66
2024/01/20 02:03:34;;;;;;;44.72;18.08;;;-1.00;99.90;;;;;;5014942;28;20030;-67
2024/01/20 02:05:59;;;;;;;40.53;17.52;;;-1.00;99.90;;;;;;5015235;28;20109;-67
2024/01/20 02:08:26;;;;;;;39.63;17.63;;;-1.10;99.90;;;;;;5015196;28;20037;-67
2024/01/20 02:10:52;;;;;;;37.83;16.75;;;-1.10;99.90;;;;;;5015053;28;20033;-66
2024/01/20 02:13:18;;;;;;;42.20;16.83;;;-1.00;99.90;;;;;;5014663;28;20036;-67
2024/01/20 02:15:45;;;;;;;37.20;16.67;;;-1.10;99.90;;;;;;5014865;28;20026;-66
2024/01/20 02:18:11;;;;;;;45.78;18.05;;;-1.10;99.90;;;;;;5015052;28;20041;-67
2024/01/20 02:20:36;;;;;;;37.90;16.20;;;-1.20;99.90;;;;;;5014758;28;20030;-67
2024/01/20 02:23:02;;;;;;;40.28;17.25;;;-1.20;99.90;;;;;;5014691;28;20030;-67
2024/01/20 02:25:27;;;;;;;34.75;15.70;;;-1.30;99.90;;;;;;5014859;28;20116;-67
2024/01/20 02:27:53;;;;;;;49.22;17.35;;;-1.30;99.90;;;;;;5014554;28;20107;-67
2024/01/20 02:30:19;;;;;;;38.83;16.92;;;-1.20;99.90;;;;;;5014534;28;20030;-67
2024/01/20 02:32:44;;;;;;;36.58;15.85;;;-1.30;99.90;;;;;;5014706;28;20384;-67
2024/01/20 02:35:10;;;;;;;40.35;16.02;;;-1.20;99.90;;;;;;5014611;28;20041;-67
2024/01/20 02:37:35;;;;;;;38.65;16.42;;;-1.20;99.90;;;;;;5014688;28;20369;-67
2024/01/20 02:40:01;;;;;;;34.40;16.42;;;-1.30;99.90;;;;;;5014542;28;20026;-68
2024/01/20 02:42:27;;;;;;;40.53;16.23;;;-1.30;99.90;;;;;;5014254;28;20046;-67
2024/01/20 02:44:53;;;;;;;34.63;15.13;;;-1.30;99.90;;;;;;5014353;28;20033;-67
2024/01/20 02:47:18;;;;;;;37.53;15.68;;;-1.40;99.90;;;;;;5014075;28;20507;-67
2024/01/20 02:49:44;;;;;;;36.53;16.15;;;-1.30;99.90;;;;;;5014463;28;20437;-67
2024/01/20 02:52:10;;;;;;;36.85;16.20;;;-1.40;99.90;;;;;;5014181;28;20037;-67
2024/01/20 02:54:35;;;;;;;37.58;16.20;;;-1.40;99.90;;;;;;5014295;28;20515;-67
2024/01/20 02:57:01;;;;;;;34.50;15.00;;;-1.40;99.90;;;;;;5014177;28;20507;-67
2024/01/20 02:59:26;;;;;;;40.35;16.20;;;-1.40;99.90;;;;;;5014297;28;20041;-69
2024/01/20 03:01:52;;;;;;;44.65;16.88;;;-1.30;99.90;;;;;;5014143;28;20041;-67
2024/01/20 03:04:17;;;;;;;36.05;15.85;;;-1.40;99.90;;;;;;5014121;28;20040;-67
2024/01/20 03:06:43;;;;;;;41.25;17.02;;;-1.40;99.90;;;;;;5014155;28;20388;-67
2024/01/20 03:09:08;;;;;;;39.33;15.75;;;-1.30;99.90;;;;;;5013944;28;20510;-67
2024/01/20 03:11:35;;;;;;;48.75;16.38;;;-1.30;99.90;;;;;;5013607;28;20113;-67
2024/01/20 03:14:01;;;;;;;35.63;15.73;;;-1.40;99.90;;;;;;5014034;28;20022;-67
2024/01/20 03:16:26;;;;;;;34.55;16.00;;;-1.40;99.90;;;;;;5013683;28;20494;-67
2024/01/20 03:18:52;;;;;;;38.70;15.32;;;-1.50;99.90;;;;;;5013803;28;20034;-67
2024/01/20 03:21:17;;;;;;;39.20;16.50;;;-1.50;99.90;;;;;;5013672;28;20125;-67
2024/01/20 03:23:43;;;;;;;33.97;15.35;;;-1.50;99.90;;;;;;5013514;28;20435;-67
2024/01/20 03:26:10;;;;;;;37.25;16.05;;;-1.50;99.90;;;;;;5013858;28;20026;-66
2024/01/20 03:28:37;;;;;;;39.10;15.88;;;-1.50;99.90;;;;;;5013406;28;20049;-67
2024/01/20 03:31:03;;;;;;;35.78;16.05;;;-1.50;99.90;;;;;;5014055;28;20026;-66
2024/01/20 03:33:29;;;;;;;46.60;16.67;;;-1.50;99.90;;;;;;5013860;28;20507;-67
2024/01/20 03:35:54;;;;;;;36.05;14.45;;;-1.50;99.90;;;;;;5013571;28;20385;-67
2024/01/20 03:38:20;;;;;;;42.67;17.30;;;-1.50;99.90;;;;;;5013493;28;20080;-67
2024/01/20 03:40:45;;;;;;;37.33;14.95;;;-1.50;99.90;;;;;;5013356;28;20369;-67
2024/01/20 03:43:12;;;;;;;42.65;16.10;;;-1.50;99.90;;;;;;5013410;28;20065;-67
2024/01/20 03:45:41;;;;;;;36.42;15.60;;;-1.50;99.90;;;;;;5013505;28;20484;-67
2024/01/20 03:48:06;;;;;;;35.65;15.65;;;-1.50;99.90;;;;;;5013419;28;20113;-66
2024/01/20 03:50:32;;;;;;;43.72;16.88;;;-1.60;99.90;;;;;;5013456;28;20420;-67
2024/01/20 03:52:57;;;;;;;44.22;16.02;;;-1.60;99.90;;;;;;5013519;28;20026;-66
2024/01/20 03:55:23;;;;;;;34.88;15.30;;;-1.50;99.90;;;;;;5013315;28;20116;-66
2024/01/20 03:57:48;;;;;;;41.17;16.20;;;-1.60;99.90;;;;;;5013559;28;20038;-67
2024/01/20 04:00:14;;;;;;;36.58;15.65;;;-1.60;99.90;;;;;;5013322;28;20072;-66
2024/01/20 04:02:40;;;;;;;49.80;15.70;;;-1.70;99.90;;;;;;5013250;28;20460;-66
2024/01/20 04:05:06;;;;;;;47.47;17.80;;;-1.70;99.90;;;;;;5013296;28;20033;-66
2024/01/20 04:07:32;;;;;;;38.40;16.92;;;-1.70;99.90;;;;;;5013280;28;20492;-66
2024/01/20 04:09:57;;;;;;;34.30;15.27;;;-1.80;99.90;;;;;;5013465;28;20080;-66
2024/01/20 04:12:24;;;;;;;42.38;16.02;;;-1.70;99.90;;;;;;5013292;28;20393;-66
2024/01/20 04:14:49;;;;;;;38.65;16.08;;;-1.70;99.90;;;;;;5013335;28;20058;-66
2024/01/20 04:17:15;;;;;;;41.05;16.58;;;-1.80;99.90;;;;;;5013087;28;20065;-66
2024/01/20 04:19:41;;;;;;;36.03;16.48;;;-1.80;99.90;;;;;;5013186;28;20038;-66
2024/01/20 04:22:06;;;;;;;45.17;17.08;;;-1.80;99.90;;;;;;5013085;28;20034;-66
2024/01/20 04:24:32;;;;;;;37.20;16.33;;;-1.70;99.90;;;;;;5014905;28;20029;-66
2024/01/20 04:26:57;;;;;;;40.50;17.02;;;-1.80;99.90;;;;;;5017039;28;20152;-66
2024/01/20 04:29:23;;;;;;;38.13;16.65;;;-1.80;99.90;;;;;;5017024;28;20487;-66
2024/01/20 04:31:48;;;;;;;39.20;16.60;;;-1.80;99.90;;;;;;5016923;28;20037;-66
2024/01/20 04:34:14;;;;;;;41.70;17.25;;;-1.80;99.90;;;;;;5016539;28;20033;-67
2024/01/20 04:36:39;;;;;;;38.42;16.23;;;-1.80;99.90;;;;;;5016912;28;20395;-67
2024/01/20 04:39:05;;;;;;;43.08;16.00;;;-1.80;99.90;;;;;;5016755;28;20395;-66
2024/01/20 04:41:30;;;;;;;37.47;16.05;;;-1.80;99.90;;;;;;5016525;28;20052;-67
2024/01/20 04:43:56;;;;;;;40.65;16.83;;;-1.80;99.90;;;;;;5016895;28;20080;-67
2024/01/20 04:46:21;;;;;;;40.10;16.48;;;-1.90;99.90;;;;;;5016639;28;20030;-67
2024/01/20 04:48:47;;;;;;;43.08;16.23;;;-1.90;99.90;;;;;;5016695;28;20030;-67
2024/01/20 04:51:12;;;;;;;37.50;15.85;;;-1.90;99.90;;;;;;5016584;28;20068;-67
2024/01/20 04:53:38;;;;;;;44.03;17.42;;;-1.90;99.90;;;;;;5016207;28;20073;-66
2024/01/20 04:56:04;;;;;;;41.92;17.75;;;-1.90;99.90;;;;;;5016399;28;20034;-67
2024/01/20 04:58:30;;;;;;;37.45;16.58;;;-1.90;99.90;;;;;;5016629;28;20484;-67
2024/01/20 05:00:56;;;;;;;46.03;17.42;;;-2.00;99.90;;;;;;5016573;28;20026;-67
2024/01/20 05:03:21;;;;;;;43.10;17.80;;;-2.00;99.90;;;;;;5016331;28;20033;-66
2024/01/20 05:05:47;;;;;;;41.80;17.75;;;-2.00;99.90;;;;;;5016173;28;20048;-67
2024/01/20 05:08:12;;;;;;;41.08;16.85;;;-2.10;99.90;;;;;;5016378;28;20563;-67
2024/01/20 05:10:38;;;;;;;43.65;17.63;;;-2.10;99.90;;;;;;5016362;28;20113;-67
2024/01/20 05:13:03;;;;;;;41.22;19.05;;;-2.10;99.90;;;;;;5016111;28;20072;-66
2024/01/20 05:15:30;;;;;;;43.50;18.13;;;-2.00;99.90;;;;;;5015838;28;20030;-66
2024/01/20 05:17:55;;;;;;;47.45;17.73;;;-2.00;99.90;;;;;;5015899;28;20496;-66
2024/01/20 05:20:21;;;;;;;43.03;16.83;;;-2.00;99.90;;;;;;5016004;28;20045;-66
2024/01/20 05:22:48;;;;;;;50.15;18.25;;;-2.00;99.90;;;;;;5015800;28;20120;-66
2024/01/20 05:25:14;;;;;;;44.55;18.65;;;-2.00;99.90;;;;;;5015814;28;20452;-66
2024/01/20 05:27:39;;;;;;;42.33;17.60;;;-1.90;99.90;;;;;;5015863;28;20064;-66
2024/01/20 05:30:06;;;;;;;46.75;18.38;;;-1.90;99.90;;;;;;5016007;28;20030;-66
2024/01/20 05:32:31;;;;;;;38.90;19.33;;;-1.90;99.90;;;;;;5016021;28;20030;-67
2024/01/20 05:34:57;;;;;;;55.08;18.90;;;-1.90;99.90;;;;;;5015451;28;20053;-67
2024/01/20 05:37:22;;;;;;;46.42;19.55;;;-1.80;99.90;;;;;;5015441;28;20017;-66
2024/01/20 05:39:48;;;;;;;47.55;20.08;;;-1.90;99.90;;;;;;5015536;28;20038;-67
2024/01/20 05:42:14;;;;;;;45.22;19.10;;;-1.80;99.90;;;;;;5015370;28;20042;-66
2024/01/20 05:44:40;;;;;;;48.97;19.33;;;-1.80;99.90;;;;;;5022220;28;20025;-66
2024/01/20 05:47:05;;;;;;;52.92;20.55;;;-1.80;99.90;;;;;;5018847;28;20408;-66
2024/01/20 05:49:31;;;;;;;55.25;21.83;;;-1.80;99.90;;;;;;5018101;28;20080;-66
2024/01/20 05:51:56;;;;;;;51.20;19.58;;;-1.80;99.90;;;;;;5016553;28;20034;-66
2024/01/20 05:54:22;;;;;;;47.65;20.33;;;-1.80;99.90;;;;;;5016583;28;20037;-66
2024/01/20 05:56:47;;;;;;;51.13;20.20;;;-1.80;99.90;;;;;;5016882;28;20030;-67
2024/01/20 05:59:13;;;;;;;49.65;19.58;;;-1.90;99.90;;;;;;5018989;28;20037;-66
2024/01/20 06:01:38;;;;;;;56.60;20.95;;;-2.00;99.90;;;;;;5015718;28;20065;-66
2024/01/20 06:04:04;;;;;;;51.45;21.63;;;-2.00;99.90;;;;;;5018098;28;20369;-67
2024/01/20 06:06:29;;;;;;;55.58;21.92;;;-2.10;99.90;;;;;;5022059;28;20030;-66
2024/01/20 06:08:55;;;;;;;49.15;20.27;;;-2.10;99.90;;;;;;5019636;28;20057;-66
2024/01/20 06:11:23;;;;;;;50.70;21.27;;;-2.10;99.90;;;;;;5019689;28;20034;-66
2024/01/20 06:13:49;;;;;;;47.80;20.80;;;-2.20;99.90;;;;;;5015720;28;20033;-66
2024/01/20 06:16:14;;;;;;;53.38;20.52;;;-2.20;99.90;;;;;;5015100;28;20030;-66
2024/01/20 06:18:40;;;;;;;53.00;21.15;;;-2.30;99.90;;;;;;5015497;28;20357;-66
2024/01/20 06:21:05;;;;;;;53.60;20.65;;;-2.30;99.90;;;;;;5015382;28;20026;-66
2024/01/20 06:23:31;;;;;;;57.13;20.95;;;-2.30;99.90;;;;;;5015000;28;20112;-67
2024/01/20 06:25:58;;;;;;;53.70;21.10;;;-2.30;99.90;;;;;;5015069;28;20030;-66
2024/01/20 06:28:24;;;;;;;60.35;21.95;;;-2.40;99.90;;;;;;5014777;28;20459;-66
2024/01/20 06:30:49;;;;;;;60.25;21.98;;;-2.50;99.90;;;;;;5014682;28;20053;-66
2024/01/20 06:33:16;;;;;;;52.55;21.08;;;-2.60;99.90;;;;;;5014609;28;20030;-66
2024/01/20 06:35:42;;;;;;;55.65;22.85;;;-2.70;99.90;;;;;;5014694;28;20442;-66
2024/01/20 06:38:07;;;;;;;55.53;22.48;;;-2.60;99.90;;;;;;5014886;28;20121;-66
2024/01/20 06:40:33;;;;;;;56.75;22.85;;;-2.70;99.90;;;;;;5015028;28;20030;-66
2024/01/20 06:42:58;;;;;;;56.47;21.45;;;-2.80;99.90;;;;;;5014298;28;20049;-66
2024/01/20 06:45:24;;;;;;;53.33;22.13;;;-2.70;99.90;;;;;;5014691;28;20039;-66
2024/01/20 06:47:49;;;;;;;60.47;22.95;;;-2.80;99.90;;;;;;5013812;28;20021;-66
2024/01/20 06:50:15;;;;;;;57.13;22.83;;;-2.90;99.90;;;;;;5014361;28;20092;-67
2024/01/20 06:52:41;;;;;;;58.13;22.20;;;-2.90;99.90;;;;;;5014362;28;20030;-67
2024/01/20 06:55:07;;;;;;;55.72;22.88;;;-2.90;99.90;;;;;;5014263;28;20514;-67
2024/01/20 06:57:32;;;;;;;50.03;20.27;;;-2.90;99.90;;;;;;5014234;28;20108;-67
2024/01/20 06:59:58;;;;;;;51.67;20.73;;;-2.80;99.90;;;;;;5014113;28;20048;-67
2024/01/20 07:02:23;;;;;;;53.95;19.83;;;-2.80;99.90;;;;;;5014095;28;20391;-66
2024/01/20 07:04:49;;;;;;;53.20;20.65;;;-2.70;99.90;;;;;;5013984;28;20030;-67
2024/01/20 07:07:15;;;;;;;48.70;20.48;;;-2.70;99.90;;;;;;5014001;28;20101;-67
2024/01/20 07:09:40;;;;;;;53.10;21.17;;;-2.60;99.90;;;;;;5013930;28;20419;-67
2024/01/20 07:12:07;;;;;;;56.35;22.10;;;-2.50;99.90;;;;;;5013931;28;20036;-67
2024/01/20 07:14:32;;;;;;;61.13;21.17;;;-2.50;99.90;;;;;;5014087;28;20033;-68
2024/01/20 07:16:58;;;;;;;48.10;18.88;;;-2.50;99.90;;;;;;5014184;28;20033;-67
2024/01/20 07:19:23;;;;;;;46.97;20.13;;;-2.50;99.90;;;;;;5013984;28;20100;-67
2024/01/20 07:21:49;;;;;;;52.75;21.45;;;-2.50;99.90;;;;;;5013679;28;20030;-67
2024/01/20 07:24:15;;;;;;;49.28;19.75;;;-2.50;99.90;;;;;;5013764;28;20030;-67
2024/01/20 07:26:40;;;;;;;51.33;19.40;;;-2.50;99.90;;;;;;5013956;28;20025;-67
2024/01/20 07:29:06;;;;;;;44.40;19.38;;;-2.50;99.90;;;;;;5013904;28;20026;-67
2024/01/20 07:31:31;;;;;;;48.83;18.75;;;-2.60;99.90;;;;;;5013722;28;20455;-67
2024/01/20 07:33:57;;;;;;;49.22;18.45;;;-2.50;99.90;;;;;;5013542;28;20072;-67
2024/01/20 07:36:22;;;;;;;48.92;19.42;;;-2.40;99.90;;;;;;5013548;28;20562;-67
2024/01/20 07:38:48;;;;;;;46.90;18.90;;;-2.40;99.90;;;;;;5013738;28;20479;-67
2024/01/20 07:41:13;;;;;;;44.35;17.50;;;-2.40;99.90;;;;;;5013423;28;20104;-66
2024/01/20 07:43:39;;;;;;;45.13;18.23;;;-2.40;99.90;;;;;;5013493;28;20037;-67
2024/01/20 07:46:04;;;;;;;43.67;18.63;;;-2.40;99.90;;;;;;5013760;28;20036;-67
2024/01/20 07:48:30;;;;;;;44.25;18.60;;;-2.30;99.90;;;;;;5013630;28;20025;-67
2024/01/20 07:50:56;;;;;;;46.70;18.60;;;-2.30;99.90;;;;;;5013538;28;20041;-67
2024/01/20 07:53:21;;;;;;;48.72;18.48;;;-2.30;99.90;;;;;;5013419;28;20056;-66
2024/01/20 07:55:47;;;;;;;38.95;17.20;;;-2.30;99.90;;;;;;5013536;28;20030;-67
2024/01/20 07:58:12;;;;;;;42.58;18.70;;;-2.30;99.90;;;;;;5014601;28;20053;-67
2024/01/20 08:00:38;;;;;;;47.40;17.50;;;-2.20;99.90;;;;;;5017235;28;20120;-67
2024/01/20 08:03:03;;;;;;;42.10;19.17;;;-2.20;99.90;;;;;;5017199;28;20432;-67
2024/01/20 08:05:31;;;;;;;47.47;18.92;;;-2.10;99.90;;;;;;5017547;28;20030;-67
2024/01/20 08:07:56;;;;;;;43.53;17.70;;;-1.90;99.90;;;;;;5017381;28;20022;-67
2024/01/20 08:10:22;;;;;;;43.70;18.20;;;-1.80;99.90;;;;;;5017201;28;20036;-67
2024/01/20 08:12:47;;;;;;;47.25;17.63;;;-1.50;99.90;;;;;;5017248;28;20088;-67
2024/01/20 08:15:13;;;;;;;33.47;15.57;;;-1.20;99.90;;;;;;5017335;28;20108;-67
2024/01/20 08:17:38;;;;;;;33.97;15.50;;;-0.90;95.40;;;;;;5017250;28;20029;-67
2024/01/20 08:20:05;;;;;;;32.45;15.65;;;-0.60;84.60;;;;;;5017120;28;20030;-67
2024/01/20 08:22:30;;;;;;;31.67;14.98;;;0.00;61.60;;;;;;5017329;28;20041;-67
2024/01/20 08:24:59;;;;;;;32.97;13.38;;;0.80;15.20;;;;;;5017296;28;20033;-67
2024/01/20 08:27:25;;;;;;;31.15;13.02;;;0.80;1.00;;;;;;5016812;28;20026;-67
2024/01/20 08:29:50;;;;;;;35.53;13.63;;;0.90;1.00;;;;;;5016636;28;20064;-65
2024/01/20 08:32:16;;;;;;;28.75;13.82;;;0.90;1.00;;;;;;5017039;28;20030;-65
2024/01/20 08:34:41;;;;;;;30.58;12.43;;;1.20;1.00;;;;;;5016950;28;20045;-67
2024/01/20 08:37:07;;;;;;;28.20;13.75;;;1.70;1.00;;;;;;5016900;28;20026;-65
2024/01/20 08:39:33;;;;;;;26.27;12.13;;;2.00;99.90;;;;;;5016774;28;20100;-65
2024/01/20 08:41:58;;;;;;;26.67;13.45;;;2.10;99.90;;;;;;5016601;28;20049;-65
2024/01/20 08:44:24;;;;;;;25.10;13.00;;;2.50;99.90;;;;;;5016579;28;20022;-65
2024/01/20 08:46:49;;;;;;;28.08;12.88;;;2.20;1.00;;;;;;5016564;28;20014;-65
2024/01/20 08:49:15;;;;;;;27.52;12.93;;;2.30;94.50;;;;;;5016528;28;20057;-66
2024/01/20 08:51:40;;;;;;;26.13;12.38;;;2.40;1.00;;;;;;5016480;28;20045;-65
2024/01/20 08:54:06;;;;;;;22.38;12.07;;;2.90;3.50;;;;;;5016667;28;20041;-65
2024/01/20 08:56:31;;;;;;;31.13;13.60;;;2.30;99.90;;;;;;5016360;28;20030;-65
2024/01/20 08:58:57;;;;;;;28.90;12.65;;;2.60;1.00;;;;;;5016397;28;20048;-65
2024/01/20 09:01:22;;;;;;;26.85;12.32;;;2.70;99.90;;;;;;5016240;28;20029;-65
2024/01/20 09:03:48;;;;;;;25.70;12.90;;;2.80;99.90;;;;;;5016106;28;20060;-65
2024/01/20 09:06:15;;;;;;;27.42;13.43;;;2.80;99.90;;;;;;5016268;28;20030;-65
2024/01/20 09:08:40;;;;;;;24.63;11.88;;;2.50;1.50;;;;;;5016184;28;20021;-65
2024/01/20 09:11:06;;;;;;;27.92;12.60;;;2.90;99.90;;;;;;5015410;28;20373;-65
2024/01/20 09:13:31;;;;;;;22.67;11.55;;;3.30;99.90;;;;;;5016245;28;20377;-65
2024/01/20 09:15:57;;;;;;;23.10;11.85;;;3.30;1.00;;;;;;5016233;28;20041;-65
2024/01/20 09:18:22;;;;;;;23.20;11.40;;;2.90;92.90;;;;;;5015844;28;20025;-65
2024/01/20 09:20:48;;;;;;;22.23;11.70;;;3.60;1.00;;;;;;5015932;28;20049;-65
2024/01/20 09:23:13;;;;;;;23.73;12.35;;;3.40;1.00;;;;;;5015825;28;20033;-65
2024/01/20 09:25:39;;;;;;;21.95;11.98;;;3.70;99.90;;;;;;5015789;28;20026;-65
2024/01/20 09:28:05;;;;;;;22.13;11.18;;;4.00;25.40;;;;;;5016103;28;20072;-65
2024/01/20 09:30:31;;;;;;;25.60;12.57;;;3.90;1.00;;;;;;5015729;28;20030;-65
2024/01/20 09:32:57;;;;;;;25.50;11.82;;;3.30;99.90;;;;;;5015557;28;20045;-65
2024/01/20 09:35:22;;;;;;;21.27;11.02;;;4.20;99.90;;;;;;5015644;28;20033;-65
2024/01/20 09:37:48;;;;;;;23.27;11.68;;;4.60;99.90;;;;;;5015625;28;20496;-65
2024/01/20 09:40:15;;;;;;;22.13;11.95;;;4.80;99.90;;;;;;5015550;28;20036;-65
2024/01/20 09:42:42;;;;;;;21.92;11.82;;;4.00;99.90;;;;;;5015376;28;20046;-65
2024/01/20 09:45:08;;;;;;;28.20;12.05;;;4.30;26.40;;;;;;5015747;28;20365;-65
2024/01/20 09:47:34;;;;;;;24.80;11.30;;;4.30;1.00;;;;;;5015308;28;20033;-65
2024/01/20 09:50:01;;;;;;;24.45;12.02;;;4.50;99.90;;;;;;5015665;28;20026;-66
2024/01/20 09:52:28;;;;;;;20.42;11.68;;;4.90;1.00;;;;;;5015647;28;20109;-65
2024/01/20 09:55:07;;;;;;;22.33;11.63;;;5.00;99.90;;;;;;5013896;28;20034;-66
2024/01/20 09:57:35;;;;;;;20.13;11.45;;;4.80;1.00;;;;;;5015471;28;20099;-66
2024/01/20 10:00:04;;;;;;;22.95;11.15;;;4.30;1.00;;;;;;5015136;28;20026;-66
2024/01/20 10:02:32;;;;;;;19.98;11.90;;;3.90;1.00;;;;;;5015198;28;20495;-65
2024/01/20 10:05:05;;;;;;;18.45;11.00;;;3.80;1.00;;;;;;5015176;28;20030;-65
2024/01/20 10:07:31;;;;;;;26.90;12.30;;;4.00;99.90;;;;;;5015264;28;20030;-66
2024/01/20 10:09:57;;;;;;;22.42;11.80;;;4.20;1.00;;;;;;5014170;28;20510;-65
2024/01/20 10:12:23;;;;;;;22.42;11.55;;;4.90;99.90;;;;;;5014932;28;20062;-66
2024/01/20 10:14:49;;;;;;;20.00;10.65;;;5.40;1.00;;;;;;5014883;28;20480;-66
2024/01/20 10:17:15;;;;;;;21.25;11.50;;;5.40;1.00;;;;;;5015052;28;20029;-66
2024/01/20 10:19:40;;;;;;;21.40;11.88;;;4.80;24.80;;;;;;5014828;28;20041;-65
2024/01/20 10:22:08;;;;;;;17.30;10.32;;;5.10;99.90;;;;;;5013681;28;20052;-66
2024/01/20 10:24:33;;;;;;;19.67;10.55;;;5.30;60.20;;;;;;5014970;28;20083;-66
2024/01/20 10:27:00;;;;;;;21.90;10.25;;;4.90;99.90;;;;;;5014769;28;20029;-66
2024/01/20 10:29:25;;;;;;;18.73;9.38;;;4.90;99.90;;;;;;5014608;28;20018;-66
2024/01/20 10:31:51;;;;;;;18.80;9.32;;;5.10;99.90;;;;;;5014495;28;20396;-65
2024/01/20 10:34:16;;;;;;;15.63;9.50;;;5.20;99.90;;;;;;5014723;28;20033;-66
2024/01/20 10:36:45;;;;;;;18.83;9.77;;;4.70;99.90;;;;;;5014518;28;20502;-65
2024/01/20 10:39:14;;;;;;;18.67;8.80;;;5.00;99.90;;;;;;5014545;28;20037;-66
2024/01/20 10:41:45;;;;;;;19.90;10.40;;;5.00;99.90;;;;;;5012741;28;20050;-66
2024/01/20 10:44:16;;;;;;;16.02;8.98;;;5.40;1.00;;;;;;5014595;28;20032;-66
2024/01/20 10:46:46;;;;;;;16.92;8.85;;;5.20;1.00;;;;;;5014545;28;20472;-66
2024/01/20 10:49:17;;;;;;;14.85;8.80;;;5.10;1.00;;;;;;5014112;28;20083;-68
2024/01/20 10:51:43;;;;;;;15.23;8.50;;;5.50;1.00;;;;;;5014387;28;20412;-68
2024/01/20 10:54:09;;;;;;;16.20;8.10;;;5.40;99.90;;;;;;5014422;28;20056;-66
2024/01/20 10:56:36;;;;;;;15.18;8.50;;;5.20;1.00;;;;;;5013927;28;20137;-66
2024/01/20 10:59:18;;;;;;;18.70;8.63;;;5.20;1.00;;;;;;5014100;28;20499;-66
2024/01/20 11:01:45;;;;;;;17.97;8.40;;;5.10;99.90;;;;;;5014209;28;20045;-66
2024/01/20 11:04:18;;;;;;;15.88;8.85;;;5.50;99.90;;;;;;5013910;28;20480;-66
2024/01/20 11:06:44;;;;;;;16.80;9.10;;;5.70;1.00;;;;;;5014053;28;20026;-67
2024/01/20 11:09:18;;;;;;;17.98;9.05;;;5.90;76.20;;;;;;5013803;28;20386;-66
2024/01/20 11:11:59;;;;;;;15.25;8.35;;;6.10;99.90;;;;;;5013571;28;20029;-66
2024/01/20 11:14:29;;;;;;;17.05;7.93;;;;;;;;;;5013972;28;20033;-67
2024/01/20 11:16:56;;;;;;;15.15;7.95;;;6.10;99.90;;;;;;5013709;28;20404;-66
2024/01/20 11:19:22;;;;;;;14.85;7.65;;;6.90;99.90;;;;;;5013741;28;20093;-66
2024/01/20 11:21:48;;;;;;;15.60;7.68;;;6.50;1.00;;;;;;5013647;28;20025;-66
2024/01/20 11:24:15;;;;;;;12.35;8.20;;;6.60;57.70;;;;;;5013840;28;20026;-66
2024/01/20 11:26:41;;;;;;;15.27;7.80;;;6.90;43.10;;;;;;5013693;28;20026;-66
2024/01/20 11:29:08;;;;;;;14.52;7.32;;;7.00;1.00;;;;;;5013377;28;20479;-66
2024/01/20 11:31:34;;;;;;;11.40;7.38;;;6.60;1.00;;;;;;5013669;28;20029;-66
2024/01/20 11:34:02;;;;;;;14.18;7.72;;;6.10;1.00;;;;;;5013532;28;20041;-66
2024/01/20 11:36:30;;;;;;;12.15;7.60;;;5.90;99.90;;;;;;5013728;28;20034;-66
2024/01/20 11:38:57;;;;;;;14.18;7.57;;;5.80;1.00;;;;;;5013714;28;20388;-68
2024/01/20 11:41:23;;;;;;;14.90;7.50;;;5.40;98.90;;;;;;5013258;28;20049;-68
2024/01/20 11:43:49;;;;;;;13.25;7.28;;;5.20;99.90;;;;;;5013652;28;20480;-66
2024/01/20 11:46:15;;;;;;;14.95;6.82;;;4.90;99.90;;;;;;5013421;28;20022;-66
2024/01/20 11:48:42;;;;;;;16.55;7.97;;;4.80;99.90;;;;;;5013601;28;20030;-66
2024/01/20 11:51:09;;;;;;;14.57;7.45;;;4.60;99.90;;;;;;5013209;28;20023;-66
2024/01/20 11:53:34;;;;;;;12.73;6.68;;;4.70;1.00;;;;;;5013396;28;20030;-66
2024/01/20 11:56:01;;;;;;;14.52;6.97;;;5.10;99.90;;;;;;5013570;28;20113;-66
2024/01/20 11:58:27;;;;;;;12.18;7.60;;;5.10;1.00;;;;;;5013469;28;20084;-66
2024/01/20 12:00:54;;;;;;;11.98;7.00;;;5.20;99.90;;;;;;5013120;28;20030;-65
2024/01/20 12:03:21;;;;;;;15.48;7.22;;;5.40;25.30;;;;;;5013456;28;20080;-66
2024/01/20 12:05:47;;;;;;;11.80;6.80;;;5.00;1.00;;;;;;5013058;28;20476;-66
2024/01/20 12:08:13;;;;;;;13.38;7.63;;;4.80;60.70;;;;;;5013437;28;20033;-66
2024/01/20 12:10:41;;;;;;;11.40;7.15;;;4.80;99.90;;;;;;5013440;28;20499;-66
2024/01/20 12:13:06;;;;;;;13.82;6.90;;;4.90;42.70;;;;;;5013420;28;20037;-66
2024/01/20 12:15:36;;;;;;;14.45;7.10;;;4.80;1.00;;;;;;5013469;28;20034;-66
2024/01/20 12:18:02;;;;;;;13.70;7.63;;;4.90;99.90;;;;;;5012983;28;20038;-66
2024/01/20 12:20:27;;;;;;;18.98;8.55;;;5.20;99.90;;;;;;5013098;28;20033;-66
2024/01/20 12:22:57;;;;;;;17.10;8.07;;;5.10;1.00;;;;;;5013118;28;20113;-66
2024/01/20 12:25:26;;;;;;;13.65;8.20;;;5.10;1.00;;;;;;5013110;28;20076;-66
2024/01/20 12:27:51;;;;;;;12.45;7.70;;;5.10;1.00;;;;;;5013239;28;20018;-66